• Join FlightAware (Why Join?)
  • Login
  • US Flag 
03:12AM EDT


 

Airport Tracker/Info


-or-


 

Live Flight TrackerFlight Track Log ✈ AAL1459 ✈ 19-May-2013 ✈ KBOS - KORD

Flight Track Log - Related Links

Times and Time Zones

All times are in EDT time to prevent confusion due to time zone crossing. See the AAL1459 flight status page for this flight to view local times or setup timezone preferences in your user account.

Time Position Orientation Groundspeed Altitude Reporting Facility
EDT Latitude Longitude Course Direction KTS MPH feet Rate Location/Type
02:20PM 42.5373 -70.8020 340° North  Level FlightAware Approximate
02:20PM 42.3970 -70.8090 340° North 257 296 5,100  Level FlightAware
02:20PM 42.4090 -70.7940 43° Northeast 265 305 5,600 2,880 Climbing FlightAware
02:21PM 42.4440 -70.7690 28° Northeast 267 307 7,300 3,300 Climbing FlightAware
02:21PM 42.4570 -70.7680 North 274 315 7,800 2,580 Climbing FlightAware
02:22PM 42.5130 -70.8010 337° Northwest 292 336 9,700 2,100 Climbing FlightAware
02:22PM 42.5260 -70.8220 310° West 315 362 9,900 1,260 Climbing FlightAware
02:23PM 42.5630 -70.8880 307° West 350 403 10,900 2,280 Climbing FlightAware
02:23PM 42.6090 -70.9700 307° West 354 407 13,200 2,880 Climbing FlightAware
02:24PM 42.6500 -71.0410 308° West 364 419 15,000 2,700 Climbing FlightAware
02:25PM 42.6950 -71.1230 307° West 370 426 17,100 2,940 Climbing FlightAware
02:26PM 42.7370 -71.1980 307° West 364 419 19,200 3,060 Climbing FlightAware
02:26PM 42.7770 -71.2810 303° West 353 406 21,500 2,580 Climbing FlightAware
02:27PM 42.7910 -71.3720 282° West 367 422 22,900 1,980 Climbing FlightAware
02:28PM 42.7990 -71.4630 277° West 372 428 24,200 1,800 Climbing FlightAware
02:28PM 42.8090 -71.5680 277° West 383 441 25,500 1,800 Climbing FlightAware
02:29PM 42.8190 -71.6630 278° West 387 445 26,800 1,680 Climbing FlightAware
02:30PM 42.8270 -71.7590 277° West 395 455 27,800 1,440 Climbing FlightAware
02:30PM 42.8380 -71.8730 278° West 403 464 28,900 1,620 Climbing FlightAware
02:31PM 42.8480 -71.9740 278° West 404 465 30,100 1,620 Climbing FlightAware
02:32PM 42.8580 -72.0870 277° West 404 465 31,200 1,500 Climbing FlightAware
02:33PM 42.8670 -72.1900 277° West 404 465 32,300 1,380 Climbing FlightAware
02:33PM 42.8770 -72.3000 277° West 404 465 33,200 1,200 Climbing FlightAware
02:34PM 42.8870 -72.4030 278° West 406 467 34,000 1,320 Climbing FlightAware
02:35PM 42.8960 -72.5030 277° West 402 463 35,000 1,260 Climbing FlightAware
02:35PM 42.9040 -72.6030 276° West 400 460 35,700 1,200 Climbing FlightAware
02:36PM 42.9130 -72.7040 277° West 397 457 36,600 1,320 Climbing FlightAware
02:37PM 42.9230 -72.8250 276° West 387 445 37,700 900 Climbing FlightAware
02:37PM 42.9320 -72.9250 277° West 390 449 38,000 240 Climbing FlightAware
02:38PM 42.9380 -72.9990 276° West 388 447 38,000  Level FlightAware
02:39PM 42.9450 -73.0850 276° West 388 447 38,000  Level FlightAware
02:39PM 42.9540 -73.1940 276° West 387 445 38,000  Level FlightAware
02:40PM 42.9600 -73.2760 276° West 387 445 38,000  Level FlightAware
02:41PM 42.9710 -73.3960 277° West 388 447 38,000  Level FlightAware
02:41PM 42.9780 -73.4860 276° West 388 447 38,000  Level FlightAware
02:42PM 42.9870 -73.5970 276° West 388 447 38,000  Level FlightAware
02:43PM 42.9930 -73.6800 276° West 388 447 38,000  Level FlightAware
02:43PM 42.9990 -73.7630 276° West 388 447 38,000  Level FlightAware
02:44PM 43.0110 -73.9090 276° West 387 445 38,000  Level FlightAware
02:45PM 43.0180 -74.0160 275° West 386 444 38,000  Level FlightAware
02:46PM 43.0260 -74.1140 276° West 386 444 38,000  Level FlightAware
02:46PM 43.0340 -74.2240 276° West 387 445 38,000  Level FlightAware
02:47PM 43.0410 -74.3240 276° West 387 445 38,000  Level FlightAware
02:48PM 43.0422 -74.3861 276° West 391 450 38,000  Level Boston Center
02:49PM 43.0544 -74.5314 277° West 391 450 38,000  Level Boston Center
02:50PM 43.0661 -74.6769 276° West 391 450 38,000 -60 Level Boston Center
02:51PM 43.0736 -74.8250 274° West 391 450 37,900 -60 Descending Boston Center
02:52PM 43.0850 -74.9731 276° West 391 450 37,900  Level Boston Center
02:53PM 43.0922 -75.1186 274° West 391 450 37,900  Level Boston Center
02:54PM 43.1011 -75.2667 275° West 391 450 38,000  Climbing Boston Center
02:55PM 43.1139 -75.4181 277° West 391 450 37,900 -60 Descending Boston Center
02:56PM 43.1247 -75.5608 276° West 391 450 37,900  Level Boston Center
02:57PM 43.1331 -75.7094 274° West 391 450 38,000  Climbing Boston Center
02:58PM 43.1392 -75.8578 273° West 391 450 37,900  Descending Boston Center
03:00PM 43.1500 -76.1167 273° West 390 449 38,000  Climbing Toronto Center
03:00PM 43.1583 -76.1914 279° West 397 457 37,900  Descending Cleveland Center
03:01PM 43.1619 -76.3392 272° West 397 457 38,000  Climbing Cleveland Center
03:02PM 43.1611 -76.4928 270° West 402 463 38,000  Level Cleveland Center
03:03PM 43.1581 -76.6439 268° West 402 463 38,000  Level Cleveland Center
03:04PM 43.1589 -76.7892 271° West 402 463 38,000  Level Cleveland Center
03:05PM 43.1572 -76.9400 269° West 402 463 38,000  Level Cleveland Center
03:06PM 43.1578 -77.0911 270° West 402 463 38,000  Level Cleveland Center
03:07PM 43.1561 -77.2419 269° West 402 463 38,000  Level Cleveland Center
03:08PM 43.1561 -77.3900 270° West 402 463 38,000  Level Cleveland Center
03:09PM 43.1539 -77.5408 269° West 402 463 38,000  Level Cleveland Center
03:10PM 43.1536 -77.6889 270° West 402 463 38,000  Level Cleveland Center
03:15PM 43.1380 -78.4970 270° West 398 458 38,000  Level FlightAware
03:16PM 43.1333 -78.5333 270° West 400 460 38,000  Level Toronto Center
03:16PM 43.1372 -78.6058 274° West 403 464 38,000  Level Cleveland Center
03:17PM 43.1314 -78.7569 267° West 403 464 38,000  Level Cleveland Center
03:19PM 43.1167 -79.0000 265° West 390 449 38,000  Level Toronto Center
03:20PM 43.1167 -79.1333 270° West 390 449 38,000  Level Toronto Center
03:21PM 43.1000 -79.2667 260° West 390 449 38,000  Level Toronto Center
03:22PM 43.1000 -79.4333 270° West 390 449 38,000  Level Toronto Center
03:23PM 43.1000 -79.5833 270° West 390 449 38,000  Level Toronto Center
03:24PM 43.0833 -79.7167 260° West 390 449 38,000  Level Toronto Center
03:25PM 43.0833 -79.8833 270° West 400 460 38,000  Level Toronto Center
03:26PM 43.0833 -80.0167 270° West 390 449 38,000  Level Toronto Center
03:27PM 43.0667 -80.1833 262° West 400 460 38,000  Level Toronto Center
03:28PM 43.0667 -80.3333 270° West 400 460 38,000  Level Toronto Center
03:29PM 43.0667 -80.4833 270° West 400 460 38,000  Level Toronto Center
03:30PM 43.0500 -80.6333 261° West 400 460 38,000  Level Toronto Center
03:31PM 43.0500 -80.8000 270° West 400 460 38,000  Level Toronto Center
03:32PM 43.0333 -80.9333 260° West 400 460 38,000  Level Toronto Center
03:37PM 43.0250 -81.8520 260° West 416 479 38,000  Level FlightAware
03:38PM 43.0220 -81.9580 268° West 416 479 38,000  Level FlightAware
03:39PM 43.0200 -82.0730 269° West 418 481 38,000  Level FlightAware
03:39PM 43.0170 -82.1780 268° West 422 486 38,000  Level FlightAware
03:40PM 43.0140 -82.3000 268° West 432 497 38,000  Level FlightAware
03:41PM 43.0110 -82.3950 268° West 435 501 38,000  Level FlightAware
03:41PM 43.0090 -82.4900 268° West 438 504 38,000  Level FlightAware
03:42PM 43.0050 -82.6130 267° West 440 506 38,000 -300 Level FlightAware
03:43PM 43.0020 -82.7220 268° West 442 509 37,600 -780 Descending FlightAware
03:43PM 42.9990 -82.8370 268° West 443 510 37,000 -960 Descending FlightAware
03:44PM 42.9940 -82.9690 267° West 444 511 36,200 -600 Descending FlightAware
03:45PM 42.9890 -83.1450 268° West 443 510 36,000 -120 Descending FlightAware
03:46PM 42.9850 -83.2400 267° West 445 512 36,000  Level FlightAware
03:47PM 42.9800 -83.3930 267° West 447 514 36,000  Level FlightAware
03:47PM 42.9770 -83.4840 267° West 448 516 36,000  Level FlightAware
03:48PM 42.9730 -83.5820 267° West 449 517 36,000  Level FlightAware
03:48PM 42.9690 -83.6980 267° West 451 519 36,000  Level FlightAware
03:49PM 42.9580 -83.8400 264° West 453 521 36,000  Level FlightAware
03:50PM 42.9470 -83.9510 262° West 453 521 36,000  Level FlightAware
03:51PM 42.9360 -84.0660 263° West 453 521 36,000  Level FlightAware
03:51PM 42.9240 -84.1920 263° West 457 526 36,000 -780 Level FlightAware
03:52PM 42.9130 -84.3040 262° West 453 521 34,900 -2,400 Descending FlightAware
03:53PM 42.9010 -84.4160 262° West 459 528 32,800 -2,940 Descending FlightAware
03:53PM 42.8900 -84.5300 263° West 443 510 31,000 -1,980 Descending FlightAware
03:54PM 42.8760 -84.6570 261° West 438 504 30,000 -720 Descending FlightAware
03:55PM 42.8640 -84.7780 262° West 442 509 30,000  Level FlightAware
03:56PM 42.8530 -84.8890 262° West 445 512 30,000  Level FlightAware
03:56PM 42.8400 -85.0110 262° West 446 513 30,000  Level FlightAware
03:57PM 42.8270 -85.1290 261° West 450 518 30,000 -300 Level FlightAware
03:58PM 42.8150 -85.2390 262° West 449 517 29,600 -780 Descending FlightAware
03:58PM 42.8020 -85.3620 262° West 452 520 28,900 -1,020 Descending FlightAware
03:59PM 42.7890 -85.4750 261° West 448 516 28,200 -1,140 Descending FlightAware
04:00PM 42.7720 -85.5820 258° West 441 507 27,400 -1,140 Descending FlightAware
04:00PM 42.7500 -85.7050 256° West 433 498 26,600 -1,080 Descending FlightAware
04:01PM 42.7310 -85.8100 256° West 431 496 25,900 -1,020 Descending FlightAware
04:02PM 42.7100 -85.9250 256° West 425 489 25,200 -1,500 Descending FlightAware
04:03PM 42.6910 -86.0270 256° West 411 473 23,800 -2,220 Descending FlightAware
04:03PM 42.6730 -86.1250 256° West 399 459 22,300 -2,280 Descending FlightAware
04:04PM 42.6530 -86.2340 256° West 388 447 20,600 -1,980 Descending FlightAware
04:04PM 42.6420 -86.2910 255° West 382 440 20,000 -540 Descending FlightAware
04:05PM 42.6220 -86.3980 256° West 363 418 20,000 -960 Level FlightAware
04:06PM 42.6050 -86.4870 255° West 370 426 18,700 -1,980 Descending FlightAware
04:07PM 42.5870 -86.5840 256° West 372 428 17,200 -2,100 Descending FlightAware
04:07PM 42.5710 -86.6700 256° West 371 427 15,800 -2,220 Descending FlightAware
04:08PM 42.5470 -86.7740 253° West 365 420 14,100 -2,160 Descending FlightAware
04:09PM 42.5240 -86.8580 250° West 360 414 12,800 -2,160 Descending FlightAware
04:09PM 42.4980 -86.9540 250° West 353 406 11,100 -1,980 Descending FlightAware
04:10PM 42.4770 -87.0340 250° West 337 388 10,000 -780 Descending FlightAware
04:11PM 42.4560 -87.1100 249° West 286 329 10,100 -480 Climbing FlightAware
04:11PM 42.4430 -87.1570 249° West 274 315 9,500 -1,140 Descending FlightAware
04:12PM 42.4320 -87.1970 250° West 269 310 9,100 -480 Descending FlightAware
04:12PM 42.4190 -87.2430 249° West 267 307 9,100 -300 Level FlightAware
04:13PM 42.4040 -87.2860 245° Southwest 265 305 8,800 -1,320 Descending FlightAware
04:13PM 42.3910 -87.3290 248° West 276 318 7,900 -1,680 Descending FlightAware
04:13PM 42.3790 -87.3670 247° West 274 315 7,400 -1,200 Descending FlightAware
04:14PM 42.3720 -87.3890 247° West 271 312 7,100 -420 Descending FlightAware
04:14PM 42.3570 -87.4380 248° West 266 306 7,100  Level FlightAware
04:15PM 42.3450 -87.4800 249° West 238 274 7,100  Level FlightAware
04:15PM 42.3330 -87.5130 244° Southwest 230 265 7,100  Level FlightAware
04:16PM 42.3110 -87.5450 227° Southwest 231 266 7,100  Level FlightAware
04:16PM 42.2930 -87.5700 226° Southwest 229 264 7,100  Level FlightAware
04:17PM 42.2690 -87.6000 223° Southwest 221 254 7,100  Level FlightAware
04:17PM 42.2450 -87.6230 215° Southwest 199 229 7,100 -480 Level FlightAware
04:17PM 42.2270 -87.6410 217° Southwest 200 230 6,700 -1,200 Descending FlightAware
04:18PM 42.2050 -87.6640 218° Southwest 200 230 6,000 -1,320 Descending FlightAware
04:18PM 42.1890 -87.6840 223° Southwest 192 221 5,500 -1,020 Descending FlightAware
04:19PM 42.1700 -87.7060 221° Southwest 168 193 5,100 -1,020 Descending FlightAware
04:19PM 42.1510 -87.7270 219° Southwest 162 186 4,500 -1,020 Descending FlightAware
04:20PM 42.1380 -87.7410 219° Southwest 159 183 4,200 -780 Descending FlightAware
04:20PM 42.1290 -87.7510 219° Southwest 157 181 4,000 -960 Descending FlightAware
04:21PM 42.1120 -87.7700 220° Southwest 161 185 3,500 -900 Descending FlightAware
04:21PM 42.0970 -87.7860 218° Southwest 162 186 3,200 -780 Descending FlightAware
04:21PM 42.0880 -87.7960 220° Southwest 165 190 3,000 -900 Descending FlightAware
04:22PM 42.0740 -87.8120 220° Southwest 165 190 2,600 -900 Descending FlightAware
04:22PM 42.0560 -87.8320 220° Southwest 170 196 2,200 -840 Descending FlightAware
04:22PM 42.0450 -87.8440 219° Southwest 163 188 1,900 -900 Descending FlightAware
04:23PM 42.0360 -87.8530 217° Southwest 153 176 1,700 -840 Descending FlightAware
04:23PM 42.0200 -87.8720 221° Southwest 145 167 1,300 -900 Descending FlightAware
04:24PM 42.0070 -87.8860 219° Southwest 139 160 900 -960 Descending FlightAware